Hauptseite
METAR-TAF:

METAR-TAF

Flughäfen :

Flughafen Pembrey

Pembrey, Wales

Breite: 51-43N, Länge: 004-22W, Höhe: 3 m

Beobachtung

Neuester Wetterbericht von vor 42 Minuten, um 12:50 UTC
Wind 12 kt aus Nordost
Temperatur 14°C
Luftfeuchtigkeit 72%
Luftdruck 1012 hPa
Sichtweite 10 km oder mehr
Leicht bewölkt in der Höhe von 2200 ft
Durchbrochene Bewölkung in der Höhe von 3900 ft

METAR: EGOP 151250Z 04012KT 9999 FEW022 BKN039 14/09 Q1012 BLU

Zeit: 14:32 (13:32 UTC)


TAF: fehlend

Wetterbeobachtungen und Prognosen von mehr als 4000 Flughäfen (METAR und TAF Bericht).

Die verfügbaren Stationen werden durch gelbe und rote Markierungen auf der Karte dargestellt.

Führen Sie die Maus auf sie, um den Namen der Station zu sehen.

Darauf klicken, um die Beobachtung von Wetterbeobachtungen und Prognosen zu sehen.

Um die Karte zu ändern : klicken Sie auf den grünen Tasten mit einem schwarzen Kreuz Zum Vergrößern, auf den grünen Button mit einem Gedankenstrich zu verkleinern, oder auf die grünen Pfeile für benachbarte Karten.


METAR-TAF: